Latest Weather Observations for Melbourne (Olympic Park)

IDV60901

Issued at 8:41 am EDT Wednesday 7 December 2016 (issued every 10 minutes, with the page automatically refreshed every 10 minutes)

About weather observations | Map of Melbourne area stations | Latest observations for Melbourne area | Other Formats
Station Details ID: 086338 Name: MELBOURNE (OLYMPIC PARK) Lat: -37.83 Lon: 144.98 Height: 7.53 m
Data from the previous 72 hours. | See also: Recent months at Melbourne (Olympic Park)
Date/Time
EDT
Temp
°C
App
Temp
°C
Dew
Point
°C
Rel
Hum
%
Delta-T
°C
Wind Press
QNH
hPa
Press
MSL
hPa
Rain since
9am
mm
Dir  Spd
km/h
Gust
km/h
Spd
kts
Gust
kts
07/08:30am 14.5 13.5 8.7 68 2.9 NNE 4 7 2 4 1015.8 1015.8 0.0
07/08:00am 13.2 11.6 8.7 74 2.3 NNE 7 9 4 5 1015.7 1015.7 0.0
07/07:30am 13.0 11.4 8.7 75 2.2 NE 7 11 4 6 1015.6 1015.6 0.0
07/07:00am 12.0 10.5 8.3 78 1.8 NNE 6 9 3 5 1015.7 1015.7 0.0
07/06:30am 11.4 10.3 8.3 81 1.5 NE 4 7 2 4 1015.6 1015.6 0.0
07/06:00am 11.0 10.3 8.4 84 1.3 NE 2 7 1 4 1015.4 1015.4 0.0
07/05:30am 11.1 9.4 8.3 83 1.4 NE 7 9 4 5 1015.1 1015.1 0.0
07/05:00am 10.9 10.6 8.8 87 1.0 CALM 0 4 0 2 1014.8 1014.8 0.0
07/04:30am 10.8 9.6 9.7 93 0.6 ENE 6 11 3 6 1014.5 1014.5 0.0
07/04:00am 10.7 10.7 9.8 94 0.5 CALM 0 0 0 0 1014.4 1014.4 0.0
07/03:30am 10.8 10.8 9.7 93 0.6 CALM 0 0 0 0 1014.5 1014.5 0.0
07/03:00am 11.0 10.9 9.6 91 0.7 CALM 0 0 0 0 1014.7 1014.7 0.0
07/02:30am 11.3 11.3 9.7 90 0.8 CALM 0 0 0 0 1015.0 1015.0 0.0
07/02:00am 11.4 11.4 9.7 89 0.9 CALM 0 0 0 0 1015.2 1015.2 0.0
07/01:30am 12.0 12.0 9.7 86 1.2 CALM 0 0 0 0 1015.4 1015.4 0.0
07/01:00am 12.4 12.4 9.8 84 1.3 CALM 0 0 0 0 1015.6 1015.6 0.0
07/12:30am 13.4 13.2 8.9 74 2.3 CALM 0 0 0 0 1015.9 1015.9 0.0
07/12:00am 13.8 13.0 8.0 68 2.9 SE 2 9 1 5 1016.1 1016.1 0.0
 
Date/Time
EDT
Temp
°C
App
Temp
°C
Dew
Point
°C
Rel
Hum
%
Delta-T
°C
Wind Press
QNH
hPa
Press
MSL
hPa
Rain since
9am
mm
Dir  Spd
km/h
Gust
km/h
Spd
kts
Gust
kts
06/11:30pm 14.4 12.5 7.7 64 3.3 ESE 7 13 4 7 1016.1 1016.1 0.0
06/11:00pm 14.4 13.7 8.4 67 3.0 S 2 9 1 5 1016.2 1016.2 0.0
06/10:30pm 14.8 13.7 8.3 65 3.3 SSE 4 13 2 7 1016.2 1016.2 0.0
06/10:00pm 15.2 13.6 8.7 65 3.3 S 7 17 4 9 1016.0 1016.0 0.0
06/09:30pm 15.5 13.1 8.5 63 3.5 S 11 19 6 10 1015.5 1015.5 0.0
06/09:00pm 15.6 13.2 8.6 63 3.6 S 11 20 6 11 1015.1 1015.1 0.0
06/08:30pm 15.7 13.7 8.7 63 3.6 SSW 9 17 5 9 1015.1 1015.1 0.0
06/08:00pm 16.1 12.6 8.8 62 3.7 S 17 30 9 16 1015.0 1015.0 0.0
06/07:30pm 16.9 14.0 9.6 62 3.8 S 15 28 8 15 1014.6 1014.6 0.0
06/07:00pm 17.5 14.5 9.2 58 4.3 SSW 15 28 8 15 1014.4 1014.4 0.0
06/06:30pm 18.4 15.7 8.9 54 4.9 SSW 13 24 7 13 1014.1 1014.1 0.0
06/06:00pm 18.1 14.5 8.4 53 5.0 SSW 17 28 9 15 1013.9 1013.9 0.0
06/05:30pm 18.1 14.8 8.1 52 5.1 SSW 15 28 8 15 1013.6 1013.6 0.0
06/05:00pm 19.1 15.7 7.8 48 5.8 SSW 15 24 8 13 1013.4 1013.4 0.0
06/04:30pm 19.3 16.4 8.3 49 5.7 SW 13 24 7 13 1013.3 1013.3 0.0
06/04:00pm 19.8 17.0 6.9 43 6.5 SSW 11 19 6 10 1013.2 1013.2 0.0
06/03:30pm 20.5 17.9 7.8 44 6.6 SSW 11 19 6 10 1013.3 1013.3 0.0
06/03:00pm 19.4 16.8 7.8 47 5.9 S 11 19 6 10 1013.5 1013.5 0.0
06/02:30pm 18.7 15.5 8.4 51 5.3 S 15 22 8 12 1013.7 1013.7 0.0
06/02:00pm 18.2 15.0 8.5 53 5.0 S 15 26 8 14 1013.7 1013.7 0.0
06/01:30pm 18.4 16.2 9.2 55 4.8 SSW 11 19 6 10 1013.9 1013.9 0.0
06/01:00pm 17.6 15.2 10.0 61 4.0 SSW 13 20 7 11 1013.9 1013.9 0.0
06/12:30pm 17.5 15.2 10.6 64 3.7 S 13 26 7 14 1014.0 1014.0 0.0
06/12:00pm 17.6 15.4 10.7 64 3.7 SSW 13 20 7 11 1014.2 1014.2 0.0
06/11:30am 17.3 15.8 10.4 64 3.7 SSW 9 17 5 9 1014.1 1014.1 0.0
06/11:00am 16.7 15.3 10.8 68 3.2 SSW 9 15 5 8 1014.0 1014.0 0.0
06/10:30am 16.6 15.6 11.1 70 3.0 SW 7 17 4 9 1014.1 1014.1 0.0
06/10:00am 16.3 15.2 10.6 69 3.0 S 7 13 4 7 1014.4 1014.4 0.0
06/09:30am 16.0 15.5 10.7 71 2.8 SW 4 11 2 6 1014.5 1014.5 0.0
06/09:00am 15.6 15.1 10.6 72 2.6 S 4 7 2 4 1014.3 1014.3 0.0
06/08:30am 15.4 15.2 10.4 72 2.6 SSW 2 7 1 4 1014.1 1014.1 0.0
06/08:00am 15.4 14.7 10.2 71 2.7 SSE 4 9 2 5 1014.0 1014.0 0.0
06/07:30am 15.2 15.3 10.0 71 2.7 CALM 0 0 0 0 1013.9 1013.9 0.0
06/07:00am 14.7 13.9 9.7 72 2.6 SE 4 7 2 4 1013.6 1013.6 0.0
06/06:30am 13.5 13.7 10.5 82 1.6 CALM 0 0 0 0 1013.5 1013.5 0.0
06/06:00am 12.9 13.1 10.6 86 1.2 CALM 0 0 0 0 1012.6 1012.6 0.0
06/05:30am 13.0 13.1 10.2 83 1.4 CALM 0 0 0 0 1012.5 1012.5 0.0
06/05:00am 13.1 13.2 10.1 82 1.5 CALM 0 0 0 0 1012.0 1012.0 0.0
06/04:30am 13.5 13.3 9.2 75 2.2 CALM 0 0 0 0 1012.1 1012.1 0.0
06/04:00am 13.8 13.5 8.8 72 2.5 CALM 0 6 0 3 1011.8 1011.8 0.0
06/03:30am 14.1 13.0 8.5 69 2.8 SSE 4 9 2 5 1011.5 1011.5 0.0
06/03:00am 14.1 13.0 8.5 69 2.8 SSE 4 9 2 5 1011.8 1011.8 0.0
06/02:30am 14.3 12.2 8.3 67 3.0 SSE 9 15 5 8 1012.5 1012.5 0.0
06/02:00am 14.3 12.6 8.5 68 2.9 S 7 13 4 7 1013.0 1013.0 0.0
06/01:30am 14.3 12.7 8.9 70 2.7 SSE 7 11 4 6 1012.9 1012.9 0.0
06/01:00am 14.5 13.0 9.1 70 2.8 SSE 7 11 4 6 1013.3 1013.3 0.0
06/12:30am 14.5 12.6 8.9 69 2.8 SSE 9 15 5 8 1013.1 1013.1 0.0
06/12:00am 14.7 12.8 8.9 68 2.9 SE 9 15 5 8 1013.6 1013.6 0.0
 
Date/Time
EDT
Temp
°C
App
Temp
°C
Dew
Point
°C
Rel
Hum
%
Delta-T
°C
Wind Press
QNH
hPa
Press
MSL
hPa
Rain since
9am
mm
Dir  Spd
km/h
Gust
km/h
Spd
kts
Gust
kts
05/11:30pm 14.9 13.0 9.1 68 3.0 SE 9 15 5 8 1013.7 1013.7 0.0
05/11:00pm 15.1 12.5 9.5 69 2.9 SSE 13 17 7 9 1014.0 1014.0 0.0
05/10:30pm 15.4 13.6 9.5 68 3.0 SSE 9 17 5 9 1014.5 1014.5 0.0
05/10:00pm 15.8 13.7 9.9 68 3.1 S 11 20 6 11 1015.5 1015.5 0.0
05/09:30pm 15.9 13.5 10.2 69 3.0 S 13 20 7 11 1014.7 1014.7 0.0
05/09:00pm 16.2 14.1 11.2 72 2.7 S 13 20 7 11 1014.3 1014.3 0.0
05/08:30pm 16.4 15.1 11.1 71 2.8 S 9 24 5 13 1013.5 1013.5 0.0
05/08:00pm 16.4 13.9 11.1 71 2.8 S 15 28 8 15 1013.6 1013.6 0.0
05/07:30pm 16.6 14.4 10.9 69 3.1 S 13 28 7 15 1013.6 1013.6 0.0
05/07:00pm 17.0 14.6 11.3 69 3.1 SSW 15 30 8 16 1013.3 1013.3 0.0
05/06:30pm 17.4 15.1 11.9 70 3.0 S 15 28 8 15 1012.7 1012.7 0.0
05/06:00pm 17.7 15.8 11.7 68 3.3 S 13 26 7 14 1012.5 1012.5 0.0
05/05:30pm 17.9 15.5 11.5 66 3.5 S 15 28 8 15 1012.3 1012.3 0.0
05/05:00pm 18.4 15.7 10.3 59 4.3 SSW 15 28 8 15 1012.1 1012.1 0.0
05/04:30pm 19.0 16.4 10.6 58 4.5 S 15 26 8 14 1012.1 1012.1 0.0
05/04:00pm 20.1 17.9 10.8 55 5.1 SSW 13 24 7 13 1012.3 1012.3 0.0
05/03:30pm 21.5 19.8 11.2 52 5.7 SSW 11 17 6 9 1011.9 1011.9 0.0
05/03:00pm 20.4 18.0 10.2 52 5.5 SSW 13 20 7 11 1011.6 1011.6 0.0
05/02:30pm 20.6 18.3 10.4 52 5.5 SSW 13 26 7 14 1011.9 1011.9 0.0
05/02:00pm 20.9 18.0 9.8 49 6.0 S 15 20 8 11 1012.1 1012.1 0.0
05/01:30pm 19.9 16.9 9.2 50 5.7 SSW 15 28 8 15 1012.1 1012.1 0.0
05/01:00pm 20.4 18.1 9.0 48 6.0 SSW 11 17 6 9 1012.0 1012.0 0.0
05/12:30pm 19.9 17.5 8.6 48 5.9 S 11 17 6 9 1012.0 1012.0 0.0
05/12:00pm 19.1 17.0 9.9 55 4.9 SW 11 19 6 10 1012.3 1012.3 0.0
05/11:30am 18.6 16.5 9.9 57 4.6 S 11 17 6 9 1012.4 1012.4 0.0
05/11:00am 17.9 16.2 9.8 59 4.3 W 9 20 5 11 1012.6 1012.6 0.0
05/10:30am 17.5 16.0 10.4 63 3.8 SW 9 15 5 8 1012.4 1012.4 0.0
05/10:00am 17.4 15.7 9.8 61 4.0 SSW 9 20 5 11 1012.1 1012.1 0.0
05/09:30am 17.4 15.6 10.8 65 3.5 SSW 11 19 6 10 1012.1 1012.1 0.0
05/09:00am 17.3 16.0 11.1 67 3.3 W 9 24 5 13 1012.0 1012.0 2.4
05/08:30am 17.3 15.5 10.7 65 3.5 WSW 11 20 6 11 1011.3 1011.3 2.4
05/08:00am 17.2 15.9 11.2 68 3.2 WSW 9 20 5 11 1010.8 1010.8 2.4
05/07:30am 17.2 15.5 11.2 68 3.2 WSW 11 24 6 13 1010.2 1010.2 2.4
05/07:00am 17.7 15.9 11.0 65 3.6 SW 11 24 6 13 1009.5 1009.5 2.4
05/06:30am 17.7 15.9 13.4 76 2.4 SW 15 30 8 16 1008.9 1008.9 2.4
05/06:00am 19.0 18.2 15.1 78 2.3 WSW 13 24 7 13 1008.1 1008.1 2.4
05/05:59am 19.1 18.3 15.2 78 2.3 SW 13 24 7 13 1008.1 1008.1 2.4
05/05:30am 23.6 23.1 15.9 62 4.7 NW 13 19 7 10 1006.1 1006.1 2.4
05/05:00am 24.1 24.0 15.9 60 5.0 NNW 11 24 6 13 1005.4 1005.4 2.4
05/04:30am 23.2 22.7 16.0 64 4.4 NNW 13 28 7 15 1004.8 1004.8 2.4
05/04:00am 23.2 21.5 15.8 63 4.5 NNW 19 28 10 15 1004.2 1004.2 2.4
05/03:30am 22.8 21.5 15.9 65 4.2 N 17 24 9 13 1003.8 1003.8 2.4
05/03:00am 22.1 20.9 16.1 69 3.6 N 17 28 9 15 1003.8 1003.8 2.4
05/02:30am 22.3 20.6 16.3 69 3.6 N 20 32 11 17 1003.8 1003.8 2.4
05/02:00am 22.5 21.0 16.3 68 3.8 N 19 28 10 15 1003.7 1003.7 2.4
05/01:30am 22.4 20.9 16.4 69 3.6 N 19 35 10 19 1003.9 1003.9 2.4
05/01:00am 22.3 20.7 16.6 70 3.5 N 20 32 11 17 1004.3 1004.3 2.4
05/12:30am 22.7 21.0 16.3 67 3.9 N 20 32 11 17 1004.6 1004.6 2.4
05/12:00am 22.8 21.3 16.4 67 3.9 N 19 30 10 16 1005.0 1005.0 2.4
 
Date/Time
EDT
Temp
°C
App
Temp
°C
Dew
Point
°C
Rel
Hum
%
Delta-T
°C
Wind Press
QNH
hPa
Press
MSL
hPa
Rain since
9am
mm
Dir  Spd
km/h
Gust
km/h
Spd
kts
Gust
kts
04/11:30pm 22.1 22.2 16.6 71 3.3 N 11 24 6 13 1004.8 1004.8 2.4
04/11:00pm 22.4 22.1 16.4 69 3.7 N 13 19 7 10 1005.2 1005.2 2.4
04/10:30pm 20.5 21.4 18.3 87 1.4 NE 11 19 6 10 1005.3 1005.3 2.4
04/10:00pm 20.7 21.5 18.1 85 1.6 NNE 11 17 6 9 1005.7 1005.7 2.4
04/09:30pm 20.8 21.5 18.0 84 1.7 NNE 11 15 6 8 1006.0 1006.0 2.4
04/09:00pm 20.5 21.8 18.4 88 1.3 NNE 9 17 5 9 1006.4 1006.4 2.4
04/08:32pm 20.4 20.5 18.3 88 1.3 NNE 15 20 8 11 1006.9 1006.9 2.4
04/08:30pm 20.5 20.6 18.3 87 1.4 NNE 15 20 8 11 1006.8 1006.8 2.4
04/08:14pm 21.4 21.7 17.8 80 2.2 NNE 13 19 7 10 1007.1 1007.1 1.2
04/08:00pm 22.5 22.6 17.4 73 3.2 N 13 20 7 11 1007.2 1007.2 0.2
04/07:30pm 23.8 24.1 16.1 62 4.7 N 9 11 5 6 1006.8 1006.8 0.0
04/07:00pm 24.5 25.4 16.0 59 5.2 WNW 6 11 3 6 1007.2 1007.2 0.0
04/06:30pm 26.3 24.3 13.8 46 7.4 WNW 17 28 9 15 1007.1 1007.1 0.0
04/06:00pm 29.0 25.8 12.0 35 9.9 WNW 20 41 11 22 1006.1 1006.1 0.0
04/05:30pm 30.8 28.0 11.2 30 11.3 NNW 17 32 9 17 1005.0 1005.0 0.0
04/05:00pm 30.0 30.9 12.9 35 10.2 CALM 0 2 0 1 1004.6 1004.6 0.0
04/04:30pm 31.4 30.6 11.7 29 11.5 NNE 7 13 4 7 1004.6 1004.6 0.0
04/04:00pm 31.3 30.0 11.1 29 11.7 N 9 15 5 8 1004.9 1004.9 0.0
04/03:30pm 31.4 29.8 11.7 29 11.5 N 11 19 6 10 1005.5 1005.5 0.0
04/03:00pm 30.9 28.6 10.3 28 11.8 N 13 19 7 10 1006.0 1006.0 0.0
04/02:30pm 30.8 27.6 11.2 30 11.3 N 19 30 10 16 1006.5 1006.5 0.0
04/02:00pm 30.8 27.2 10.7 29 11.6 NNW 20 43 11 23 1006.7 1006.7 0.0
04/01:30pm 31.3 27.7 10.6 28 11.9 NNW 20 33 11 18 1007.1 1007.1 0.0
04/01:00pm 30.3 26.5 9.8 28 11.6 NNW 20 37 11 20 1007.6 1007.6 0.0
04/12:30pm 29.7 25.7 8.2 26 11.8 N 19 30 10 16 1007.8 1007.8 0.0
04/12:00pm 29.7 25.5 8.2 26 11.8 N 20 32 11 17 1008.1 1008.1 0.0
04/11:30am 29.6 24.5 7.5 25 12.0 N 24 39 13 21 1008.4 1008.4 0.0
04/11:00am 29.6 25.1 8.6 27 11.6 N 22 35 12 19 1008.7 1008.7 0.0
04/10:30am 25.3 24.0 11.1 41 8.0 NNE 9 13 5 7 1008.9 1008.9 0.0
04/10:00am 22.5 21.0 9.3 43 7.1 ENE 7 9 4 5 1009.5 1009.5 0.0
04/09:30am 20.3 19.2 9.8 51 5.6 NE 6 13 3 7 1009.8 1009.8 0.0
04/09:00am 18.1 16.9 9.5 57 4.5 NE 6 13 3 7 1010.1 1010.1 0.0

Latest Capital City Observations: Canberra | Sydney | Melbourne | Brisbane | Adelaide | Perth | Hobart | Darwin

Other Formats:

Comma delimited format used in spreadsheet applications
http://www.bom.gov.au/fwo/IDV60901/IDV60901.95936.axf

JavaScript Object Notation format (JSON) in row-major order
http://www.bom.gov.au/fwo/IDV60901/IDV60901.95936.json